sensor_id;sensor_type;location;lat;lon;timestamp;pressure;altitude;pressure_sealevel;temperature;humidity
6833;BME280;3454;42.654;23.378;2023-06-14T00:00:37;64706.06;;;16.55;100.00
6833;BME280;3454;42.654;23.378;2023-06-14T00:03:06;64709.34;;;16.58;100.00
6833;BME280;3454;42.654;23.378;2023-06-14T00:05:33;64704.94;;;16.54;100.00
6833;BME280;3454;42.654;23.378;2023-06-14T00:08:04;64704.94;;;16.54;100.00
6833;BME280;3454;42.654;23.378;2023-06-14T00:10:32;64705.72;;;16.57;100.00
6833;BME280;3454;42.654;23.378;2023-06-14T00:13:01;64703.31;;;16.53;100.00
6833;BME280;3454;42.654;23.378;2023-06-14T00:15:26;64708.28;;;16.57;100.00
6833;BME280;3454;42.654;23.378;2023-06-14T00:17:51;64707.38;;;16.59;100.00
6833;BME280;3454;42.654;23.378;2023-06-14T00:20:17;64718.72;;;16.67;100.00
6833;BME280;3454;42.654;23.378;2023-06-14T00:22:42;64742.94;;;16.89;100.00
6833;BME280;3454;42.654;23.378;2023-06-14T00:25:08;64749.78;;;16.98;100.00
6833;BME280;3454;42.654;23.378;2023-06-14T00:27:33;64759.28;;;17.02;100.00
6833;BME280;3454;42.654;23.378;2023-06-14T00:29:59;64762.03;;;17.04;100.00
6833;BME280;3454;42.654;23.378;2023-06-14T00:32:24;64746.59;;;16.90;100.00
6833;BME280;3454;42.654;23.378;2023-06-14T00:34:51;64743.84;;;16.88;100.00
6833;BME280;3454;42.654;23.378;2023-06-14T00:37:17;64735.81;;;16.83;100.00
6833;BME280;3454;42.654;23.378;2023-06-14T00:39:42;64737.44;;;16.84;100.00
6833;BME280;3454;42.654;23.378;2023-06-14T00:42:07;64744.97;;;16.89;100.00
6833;BME280;3454;42.654;23.378;2023-06-14T00:44:33;64743.16;;;16.92;100.00
6833;BME280;3454;42.654;23.378;2023-06-14T00:46:58;64751.22;;;16.97;100.00
6833;BME280;3454;42.654;23.378;2023-06-14T00:49:24;64751.75;;;16.97;100.00
6833;BME280;3454;42.654;23.378;2023-06-14T00:51:50;64748.25;;;16.92;100.00
6833;BME280;3454;42.654;23.378;2023-06-14T00:54:16;64752.31;;;16.98;100.00
6833;BME280;3454;42.654;23.378;2023-06-14T00:56:43;64753.09;;;17.01;100.00
6833;BME280;3454;42.654;23.378;2023-06-14T00:59:09;64752.88;;;16.98;100.00
6833;BME280;3454;42.654;23.378;2023-06-14T01:01:36;64744.06;;;16.90;100.00
6833;BME280;3454;42.654;23.378;2023-06-14T01:04:02;64740.22;;;16.87;100.00
6833;BME280;3454;42.654;23.378;2023-06-14T01:06:38;64745.50;;;16.89;100.00
6833;BME280;3454;42.654;23.378;2023-06-14T01:12:04;64747.34;;;16.93;100.00
6833;BME280;3454;42.654;23.378;2023-06-14T01:14:32;64756.16;;;17.01;100.00
6833;BME280;3454;42.654;23.378;2023-06-14T01:16:59;64750.88;;;16.99;100.00
6833;BME280;3454;42.654;23.378;2023-06-14T01:19:26;64759.69;;;17.07;100.00
6833;BME280;3454;42.654;23.378;2023-06-14T01:21:55;64761.91;;;17.09;100.00
6833;BME280;3454;42.654;23.378;2023-06-14T01:24:20;64769.38;;;17.13;100.00
6833;BME280;3454;42.654;23.378;2023-06-14T01:26:52;64761.69;;;17.06;100.00
6833;BME280;3454;42.654;23.378;2023-06-14T01:29:22;64758.59;;;17.06;100.00
6833;BME280;3454;42.654;23.378;2023-06-14T01:31:48;64768.28;;;17.12;100.00
6833;BME280;3454;42.654;23.378;2023-06-14T01:34:14;64769.94;;;17.14;100.00
6833;BME280;3454;42.654;23.378;2023-06-14T01:36:41;64768.28;;;17.12;100.00
6833;BME280;3454;42.654;23.378;2023-06-14T01:39:08;64757.28;;;17.02;100.00
6833;BME280;3454;42.654;23.378;2023-06-14T01:41:34;64753.09;;;17.01;100.00
6833;BME280;3454;42.654;23.378;2023-06-14T01:44:01;64743.16;;;16.92;100.00
6833;BME280;3454;42.654;23.378;2023-06-14T01:46:27;64750.13;;;16.96;100.00
6833;BME280;3454;42.654;23.378;2023-06-14T01:48:52;64749.03;;;16.95;100.00
6833;BME280;3454;42.654;23.378;2023-06-14T01:51:18;64751.56;;;16.95;100.00
6833;BME280;3454;42.654;23.378;2023-06-14T01:53:43;64742.06;;;16.91;100.00
6833;BME280;3454;42.654;23.378;2023-06-14T01:56:09;64727.75;;;16.77;100.00
6833;BME280;3454;42.654;23.378;2023-06-14T01:58:34;64744.63;;;16.91;100.00
6833;BME280;3454;42.654;23.378;2023-06-14T02:01:00;64736.34;;;16.83;100.00
6833;BME280;3454;42.654;23.378;2023-06-14T02:03:26;64734.69;;;16.82;100.00
6833;BME280;3454;42.654;23.378;2023-06-14T02:05:52;64731.06;;;16.81;100.00
6833;BME280;3454;42.654;23.378;2023-06-14T02:08:18;64732.50;;;16.79;100.00
6833;BME280;3454;42.654;23.378;2023-06-14T02:10:43;64735.03;;;16.79;100.00
6833;BME280;3454;42.654;23.378;2023-06-14T02:13:09;64725.00;;;16.75;100.00
6833;BME280;3454;42.654;23.378;2023-06-14T02:15:34;64717.63;;;16.66;100.00
6833;BME280;3454;42.654;23.378;2023-06-14T02:18:01;64711.38;;;16.58;100.00
6833;BME280;3454;42.654;23.378;2023-06-14T02:20:28;64710.13;;;16.61;100.00
6833;BME280;3454;42.654;23.378;2023-06-14T02:22:54;64714.31;;;16.63;100.00
6833;BME280;3454;42.654;23.378;2023-06-14T02:25:20;64710.47;;;16.59;100.00
6833;BME280;3454;42.654;23.378;2023-06-14T02:27:45;64721.47;;;16.69;100.00
6833;BME280;3454;42.654;23.378;2023-06-14T02:30:11;64730.63;;;16.75;100.00
6833;BME280;3454;42.654;23.378;2023-06-14T02:32:37;64730.84;;;16.78;100.00
6833;BME280;3454;42.654;23.378;2023-06-14T02:35:03;64736.16;;;16.81;100.00
6833;BME280;3454;42.654;23.378;2023-06-14T02:37:29;64731.94;;;16.79;100.00
6833;BME280;3454;42.654;23.378;2023-06-14T02:39:55;64734.34;;;16.84;100.00
6833;BME280;3454;42.654;23.378;2023-06-14T02:42:21;64741.31;;;16.88;100.00
6833;BME280;3454;42.654;23.378;2023-06-14T02:44:46;64747.91;;;16.94;100.00
6833;BME280;3454;42.654;23.378;2023-06-14T02:47:19;64745.38;;;16.94;100.00
6833;BME280;3454;42.654;23.378;2023-06-14T02:49:44;64743.50;;;16.90;100.00
6833;BME280;3454;42.654;23.378;2023-06-14T02:52:11;64743.50;;;16.90;100.00
6833;BME280;3454;42.654;23.378;2023-06-14T02:54:37;64737.44;;;16.84;100.00
6833;BME280;3454;42.654;23.378;2023-06-14T02:57:02;64752.31;;;16.98;100.00
6833;BME280;3454;42.654;23.378;2023-06-14T02:59:28;64739.66;;;16.86;100.00
6833;BME280;3454;42.654;23.378;2023-06-14T03:01:53;64739.09;;;16.86;100.00
6833;BME280;3454;42.654;23.378;2023-06-14T03:04:19;64734.69;;;16.82;100.00
6833;BME280;3454;42.654;23.378;2023-06-14T03:06:45;64731.59;;;16.81;100.00
6833;BME280;3454;42.654;23.378;2023-06-14T03:09:15;64733.25;;;16.83;100.00
6833;BME280;3454;42.654;23.378;2023-06-14T03:11:41;64730.06;;;16.75;100.00
6833;BME280;3454;42.654;23.378;2023-06-14T03:14:06;64728.31;;;16.78;100.00
6833;BME280;3454;42.654;23.378;2023-06-14T03:16:33;64733.78;;;16.83;100.00
6833;BME280;3454;42.654;23.378;2023-06-14T03:18:59;64735.25;;;16.82;100.00
6833;BME280;3454;42.654;23.378;2023-06-14T03:21:24;64717.81;;;16.68;100.00
6833;BME280;3454;42.654;23.378;2023-06-14T03:23:51;64706.28;;;16.58;100.00
6833;BME280;3454;42.654;23.378;2023-06-14T03:26:18;64711.38;;;16.58;100.00
6833;BME280;3454;42.654;23.378;2023-06-14T03:28:44;64709.00;;;16.60;100.00
6833;BME280;3454;42.654;23.378;2023-06-14T03:31:11;64717.06;;;16.65;100.00
6833;BME280;3454;42.654;23.378;2023-06-14T03:33:36;64726.44;;;16.74;100.00
6833;BME280;3454;42.654;23.378;2023-06-14T03:36:02;64731.06;;;16.81;100.00
6833;BME280;3454;42.654;23.378;2023-06-14T03:38:28;64731.94;;;16.79;100.00
6833;BME280;3454;42.654;23.378;2023-06-14T03:40:53;64733.78;;;16.83;100.00
6833;BME280;3454;42.654;23.378;2023-06-14T03:43:19;64730.28;;;16.77;100.00
6833;BME280;3454;42.654;23.378;2023-06-14T03:45:44;64718.94;;;16.69;100.00
6833;BME280;3454;42.654;23.378;2023-06-14T03:48:09;64702.97;;;16.55;100.00
6833;BME280;3454;42.654;23.378;2023-06-14T03:50:35;64693.94;;;16.44;100.00
6833;BME280;3454;42.654;23.378;2023-06-14T03:53:03;64687.31;;;16.38;100.00
6833;BME280;3454;42.654;23.378;2023-06-14T03:55:29;64686.78;;;16.38;100.00
6833;BME280;3454;42.654;23.378;2023-06-14T03:57:56;64680.94;;;16.35;100.00
6833;BME280;3454;42.654;23.378;2023-06-14T04:00:22;64686.22;;;16.37;100.00
6833;BME280;3454;42.654;23.378;2023-06-14T04:02:47;64692.84;;;16.43;100.00
6833;BME280;3454;42.654;23.378;2023-06-14T04:05:13;64711.91;;;16.58;100.00
6833;BME280;3454;42.654;23.378;2023-06-14T04:07:38;64707.94;;;16.59;100.00
6833;BME280;3454;42.654;23.378;2023-06-14T04:10:11;64689.19;;;16.42;100.00
6833;BME280;3454;42.654;23.378;2023-06-14T04:12:36;64689.19;;;16.42;100.00
6833;BME280;3454;42.654;23.378;2023-06-14T04:15:02;64691.72;;;16.42;100.00
6833;BME280;3454;42.654;23.378;2023-06-14T04:17:28;64701.66;;;16.51;100.00
6833;BME280;3454;42.654;23.378;2023-06-14T04:19:54;64717.06;;;16.65;100.00
6833;BME280;3454;42.654;23.378;2023-06-14T04:22:20;64717.28;;;16.68;100.00
6833;BME280;3454;42.654;23.378;2023-06-14T04:24:46;64726.09;;;16.76;100.00
6833;BME280;3454;42.654;23.378;2023-06-14T04:27:11;64725.53;;;16.75;100.00
6833;BME280;3454;42.654;23.378;2023-06-14T04:29:37;64727.75;;;16.77;100.00
6833;BME280;3454;42.654;23.378;2023-06-14T04:32:02;64741.50;;;16.90;100.00
6833;BME280;3454;42.654;23.378;2023-06-14T04:34:28;64746.47;;;16.95;100.00
6833;BME280;3454;42.654;23.378;2023-06-14T04:37:00;64773.25;;;17.17;100.00
6833;BME280;3454;42.654;23.378;2023-06-14T04:39:26;64770.16;;;17.16;100.00
6833;BME280;3454;42.654;23.378;2023-06-14T04:41:53;64774.34;;;17.18;100.00
6833;BME280;3454;42.654;23.378;2023-06-14T04:44:22;64776.22;;;17.22;100.00
6833;BME280;3454;42.654;23.378;2023-06-14T04:46:49;64788.88;;;17.33;100.00
6833;BME280;3454;42.654;23.378;2023-06-14T04:49:15;64799.88;;;17.43;100.00
6833;BME280;3454;42.654;23.378;2023-06-14T04:51:42;64807.41;;;17.48;100.00
6833;BME280;3454;42.654;23.378;2023-06-14T04:54:08;64786.66;;;17.31;100.00
6833;BME280;3454;42.654;23.378;2023-06-14T04:56:36;64774.56;;;17.20;100.00
6833;BME280;3454;42.654;23.378;2023-06-14T04:59:02;64776.22;;;17.22;100.00
6833;BME280;3454;42.654;23.378;2023-06-14T05:01:30;64814.81;;;17.57;100.00
6833;BME280;3454;42.654;23.378;2023-06-14T05:04:00;64871.00;;;18.08;100.00
6833;BME280;3454;42.654;23.378;2023-06-14T05:06:25;64899.16;;;18.34;100.00
6833;BME280;3454;42.654;23.378;2023-06-14T05:08:54;64911.28;;;18.45;100.00
6833;BME280;3454;42.654;23.378;2023-06-14T05:11:19;64949.13;;;18.77;100.00
6833;BME280;3454;42.654;23.378;2023-06-14T05:13:45;64955.41;;;18.85;100.00
6833;BME280;3454;42.654;23.378;2023-06-14T05:16:12;64975.63;;;19.01;100.00
6833;BME280;3454;42.654;23.378;2023-06-14T05:18:38;65000.47;;;19.24;100.00
6833;BME280;3454;42.654;23.378;2023-06-14T05:21:05;65022.91;;;19.42;100.00
6833;BME280;3454;42.654;23.378;2023-06-14T05:23:31;65026.28;;;19.52;100.00
6833;BME280;3454;42.654;23.378;2023-06-14T05:25:56;65008.19;;;19.31;100.00
6833;BME280;3454;42.654;23.378;2023-06-14T05:28:22;65002.66;;;19.26;100.00
6833;BME280;3454;42.654;23.378;2023-06-14T05:30:49;64992.94;;;19.19;100.00
6833;BME280;3454;42.654;23.378;2023-06-14T05:33:14;64962.59;;;18.92;100.00
6833;BME280;3454;42.654;23.378;2023-06-14T05:35:40;64949.13;;;18.77;100.00
6833;BME280;3454;42.654;23.378;2023-06-14T05:38:05;64959.81;;;18.89;100.00
6833;BME280;3454;42.654;23.378;2023-06-14T05:40:32;64974.19;;;19.02;100.00
6833;BME280;3454;42.654;23.378;2023-06-14T05:42:58;64960.38;;;18.90;100.00
6833;BME280;3454;42.654;23.378;2023-06-14T05:45:23;64951.56;;;18.82;100.00
6833;BME280;3454;42.654;23.378;2023-06-14T05:47:49;64920.66;;;18.54;100.00
6833;BME280;3454;42.654;23.378;2023-06-14T05:50:15;64929.84;;;18.60;100.00
6833;BME280;3454;42.654;23.378;2023-06-14T05:52:41;64935.00;;;18.67;100.00
6833;BME280;3454;42.654;23.378;2023-06-14T05:55:07;64961.81;;;18.89;100.00
6833;BME280;3454;42.654;23.378;2023-06-14T05:57:32;64985.56;;;19.10;100.00
6833;BME280;3454;42.654;23.378;2023-06-14T05:59:58;65019.25;;;19.41;100.00
6833;BME280;3454;42.654;23.378;2023-06-14T06:02:23;65037.09;;;19.60;100.00
6833;BME280;3454;42.654;23.378;2023-06-14T06:04:49;65065.28;;;19.85;100.00
6833;BME280;3454;42.654;23.378;2023-06-14T06:07:15;65115.00;;;20.31;100.00
6833;BME280;3454;42.654;23.378;2023-06-14T06:09:40;65136.00;;;20.50;100.00
6833;BME280;3454;42.654;23.378;2023-06-14T06:12:06;65138.22;;;20.52;100.00
6833;BME280;3454;42.654;23.378;2023-06-14T06:14:32;65147.06;;;20.60;100.00
6833;BME280;3454;42.654;23.378;2023-06-14T06:16:57;65159.22;;;20.71;100.00
6833;BME280;3454;42.654;23.378;2023-06-14T06:19:24;65165.47;;;20.79;100.00
6833;BME280;3454;42.654;23.378;2023-06-14T06:21:49;65177.09;;;20.89;100.00
6833;BME280;3454;42.654;23.378;2023-06-14T06:24:15;65164.19;;;20.75;100.00
6833;BME280;3454;42.654;23.378;2023-06-14T06:26:41;65155.56;;;20.70;100.00
6833;BME280;3454;42.654;23.378;2023-06-14T06:29:07;65155.34;;;20.67;100.00
6833;BME280;3454;42.654;23.378;2023-06-14T06:31:32;65164.53;;;20.73;100.00
6833;BME280;3454;42.654;23.378;2023-06-14T06:33:57;65144.28;;;20.57;100.00
6833;BME280;3454;42.654;23.378;2023-06-14T06:36:24;65134.91;;;20.49;100.00
6833;BME280;3454;42.654;23.378;2023-06-14T06:38:49;65140.97;;;20.54;100.00
6833;BME280;3454;42.654;23.378;2023-06-14T06:41:15;65130.47;;;20.45;100.00
6833;BME280;3454;42.654;23.378;2023-06-14T06:43:41;65114.09;;;20.32;100.00
6833;BME280;3454;42.654;23.378;2023-06-14T06:46:06;65116.13;;;20.32;100.00
6833;BME280;3454;42.654;23.378;2023-06-14T06:48:32;65121.06;;;20.36;100.00
6833;BME280;3454;42.654;23.378;2023-06-14T06:50:57;65124.75;;;20.37;100.00
6833;BME280;3454;42.654;23.378;2023-06-14T06:53:23;65126.06;;;20.41;100.00
6833;BME280;3454;42.654;23.378;2023-06-14T06:55:49;65130.47;;;20.45;100.00
6833;BME280;3454;42.654;23.378;2023-06-14T06:58:14;65111.69;;;20.28;100.00
6833;BME280;3454;42.654;23.378;2023-06-14T07:00:40;65102.50;;;20.22;100.00
6833;BME280;3454;42.654;23.378;2023-06-14T07:03:06;65103.97;;;20.21;100.00
6833;BME280;3454;42.654;23.378;2023-06-14T07:05:32;65117.00;;;20.30;100.00
6833;BME280;3454;42.654;23.378;2023-06-14T07:07:58;65106.72;;;20.23;100.00
6833;BME280;3454;42.654;23.378;2023-06-14T07:10:23;65120.88;;;20.34;100.00
6833;BME280;3454;42.654;23.378;2023-06-14T07:12:50;65122.94;;;20.40;100.00
6833;BME280;3454;42.654;23.378;2023-06-14T07:15:15;65128.25;;;20.43;100.00
6833;BME280;3454;42.654;23.378;2023-06-14T07:17:41;65153.13;;;20.65;100.00
6833;BME280;3454;42.654;23.378;2023-06-14T07:20:07;65169.16;;;20.80;100.00
6833;BME280;3454;42.654;23.378;2023-06-14T07:22:42;65189.06;;;20.98;100.00
6833;BME280;3454;42.654;23.378;2023-06-14T07:25:12;65217.84;;;21.24;100.00
6833;BME280;3454;42.654;23.378;2023-06-14T07:27:42;65249.53;;;21.55;100.00
6833;BME280;3454;42.654;23.378;2023-06-14T07:30:08;65225.56;;;21.31;100.00
6833;BME280;3454;42.654;23.378;2023-06-14T07:32:33;65208.97;;;21.16;100.00
6833;BME280;3454;42.654;23.378;2023-06-14T07:34:59;65211.34;;;21.14;100.00
6833;BME280;3454;42.654;23.378;2023-06-14T07:37:24;65207.34;;;21.15;100.00
6833;BME280;3454;42.654;23.378;2023-06-14T07:39:50;65243.25;;;21.47;100.00
6833;BME280;3454;42.654;23.378;2023-06-14T07:42:15;65242.00;;;21.51;100.00
6833;BME280;3454;42.654;23.378;2023-06-14T07:44:41;65254.31;;;21.57;100.00
6833;BME280;3454;42.654;23.378;2023-06-14T07:47:06;65265.94;;;21.68;100.00
6833;BME280;3454;42.654;23.378;2023-06-14T07:49:31;65284.78;;;21.85;100.00
6833;BME280;3454;42.654;23.378;2023-06-14T07:51:57;65313.00;;;22.11;100.00
6833;BME280;3454;42.654;23.378;2023-06-14T07:54:23;65321.28;;;22.18;100.00
6833;BME280;3454;42.654;23.378;2023-06-14T07:56:51;65351.19;;;22.45;98.46
6833;BME280;3454;42.654;23.378;2023-06-14T07:59:17;65363.00;;;22.59;98.08
6833;BME280;3454;42.654;23.378;2023-06-14T08:01:42;65351.38;;;22.48;100.00
6833;BME280;3454;42.654;23.378;2023-06-14T08:04:13;65391.63;;;22.82;100.00
6833;BME280;3454;42.654;23.378;2023-06-14T08:06:38;65439.22;;;23.25;96.28
6833;BME280;3454;42.654;23.378;2023-06-14T08:09:04;65472.13;;;23.58;92.42
6833;BME280;3454;42.654;23.378;2023-06-14T08:11:31;65433.72;;;23.20;92.44
6833;BME280;3454;42.654;23.378;2023-06-14T08:13:56;65431.13;;;23.20;93.66
6833;BME280;3454;42.654;23.378;2023-06-14T08:16:21;65410.06;;;23.01;93.31
6833;BME280;3454;42.654;23.378;2023-06-14T08:18:47;65421.50;;;23.09;97.53
6833;BME280;3454;42.654;23.378;2023-06-14T08:21:12;65451.84;;;23.42;93.50
6833;BME280;3454;42.654;23.378;2023-06-14T08:23:40;65493.56;;;23.75;91.54
6833;BME280;3454;42.654;23.378;2023-06-14T08:26:12;65519.81;;;24.01;88.94
6833;BME280;3454;42.654;23.378;2023-06-14T08:28:38;65544.56;;;24.21;88.89
6833;BME280;3454;42.654;23.378;2023-06-14T08:31:03;65494.50;;;23.80;89.61
6833;BME280;3454;42.654;23.378;2023-06-14T08:33:29;65488.78;;;23.73;90.94
6833;BME280;3454;42.654;23.378;2023-06-14T08:35:55;65507.59;;;23.90;93.40
6833;BME280;3454;42.654;23.378;2023-06-14T08:38:20;65523.91;;;24.07;88.73
6833;BME280;3454;42.654;23.378;2023-06-14T08:40:50;65531.84;;;24.09;90.13
6833;BME280;3454;42.654;23.378;2023-06-14T08:43:16;65544.97;;;24.26;86.77
6833;BME280;3454;42.654;23.378;2023-06-14T08:45:42;65560.84;;;24.38;84.09
6833;BME280;3454;42.654;23.378;2023-06-14T08:48:08;65560.84;;;24.38;86.84
6833;BME280;3454;42.654;23.378;2023-06-14T08:50:36;65583.41;;;24.56;83.21
6833;BME280;3454;42.654;23.378;2023-06-14T08:53:05;65588.94;;;24.61;86.87
6833;BME280;3454;42.654;23.378;2023-06-14T08:55:36;65580.41;;;24.51;79.37
6833;BME280;3454;42.654;23.378;2023-06-14T08:58:03;65572.84;;;24.47;85.18
6833;BME280;3454;42.654;23.378;2023-06-14T09:00:29;65550.09;;;24.26;84.45
6833;BME280;3454;42.654;23.378;2023-06-14T09:02:55;65547.53;;;24.26;82.29
6833;BME280;3454;42.654;23.378;2023-06-14T09:05:24;65559.19;;;24.37;85.33
6833;BME280;3454;42.654;23.378;2023-06-14T09:07:50;65553.66;;;24.32;86.87
6833;BME280;3454;42.654;23.378;2023-06-14T09:10:16;65556.75;;;24.32;84.44
6833;BME280;3454;42.654;23.378;2023-06-14T09:12:42;65557.88;;;24.33;86.25
6833;BME280;3454;42.654;23.378;2023-06-14T09:15:10;65618.91;;;24.88;83.69
6833;BME280;3454;42.654;23.378;2023-06-14T09:17:36;65636.66;;;25.05;79.22
6833;BME280;3454;42.654;23.378;2023-06-14T09:20:07;65649.25;;;25.21;79.60
6833;BME280;3454;42.654;23.378;2023-06-14T09:22:34;65629.09;;;25.00;84.32
6833;BME280;3454;42.654;23.378;2023-06-14T09:25:00;65597.44;;;24.71;84.86
6833;BME280;3454;42.654;23.378;2023-06-14T09:27:26;65572.84;;;24.47;87.80
6833;BME280;3454;42.654;23.378;2023-06-14T09:29:52;65551.78;;;24.28;85.88
6833;BME280;3454;42.654;23.378;2023-06-14T09:32:18;65515.16;;;23.94;84.78
6833;BME280;3454;42.654;23.378;2023-06-14T09:34:45;65504.84;;;23.87;82.20
6833;BME280;3454;42.654;23.378;2023-06-14T09:37:10;65453.66;;;23.39;87.09
6833;BME280;3454;42.654;23.378;2023-06-14T09:39:43;65430.94;;;23.18;90.12
6833;BME280;3454;42.654;23.378;2023-06-14T09:42:20;65427.81;;;23.17;90.06
6833;BME280;3454;42.654;23.378;2023-06-14T09:44:49;65462.53;;;23.47;93.36
6833;BME280;3454;42.654;23.378;2023-06-14T09:47:15;65448.88;;;23.37;89.99
6833;BME280;3454;42.654;23.378;2023-06-14T09:49:41;65473.25;;;23.59;88.44
6833;BME280;3454;42.654;23.378;2023-06-14T09:52:10;65494.66;;;23.76;88.40
6833;BME280;3454;42.654;23.378;2023-06-14T09:54:41;65495.22;;;23.76;89.40
6833;BME280;3454;42.654;23.378;2023-06-14T09:57:12;65483.78;;;23.68;82.90
6833;BME280;3454;42.654;23.378;2023-06-14T09:59:41;65459.03;;;23.48;87.27
6833;BME280;3454;42.654;23.378;2023-06-14T10:05:05;65461.41;;;23.46;89.46
6833;BME280;3454;42.654;23.378;2023-06-14T10:07:53;65500.78;;;23.81;83.24
6833;BME280;3454;42.654;23.378;2023-06-14T10:10:21;65534.59;;;24.12;81.82
6833;BME280;3454;42.654;23.378;2023-06-14T10:12:46;65560.09;;;24.35;77.45
6833;BME280;3454;42.654;23.378;2023-06-14T10:15:20;65613.00;;;24.85;78.23
6833;BME280;3454;42.654;23.378;2023-06-14T10:18:03;65668.84;;;25.34;78.31
6833;BME280;3454;42.654;23.378;2023-06-14T10:20:33;65697.72;;;25.60;78.28
6833;BME280;3454;42.654;23.378;2023-06-14T10:23:18;65711.81;;;25.75;72.22
6833;BME280;3454;42.654;23.378;2023-06-14T10:25:49;65730.28;;;25.87;71.83
6833;BME280;3454;42.654;23.378;2023-06-14T10:31:11;65667.75;;;25.33;71.99
6833;BME280;3454;42.654;23.378;2023-06-14T10:33:48;65705.13;;;25.69;74.50
6833;BME280;3454;42.654;23.378;2023-06-14T10:41:28;65804.00;;;26.58;68.23
6833;BME280;3454;42.654;23.378;2023-06-14T10:46:37;65788.81;;;26.42;69.87
6833;BME280;3454;42.654;23.378;2023-06-14T10:49:03;65821.78;;;26.75;65.00
6833;BME280;3454;42.654;23.378;2023-06-14T10:51:39;65810.66;;;26.64;64.44
6833;BME280;3454;42.654;23.378;2023-06-14T10:54:14;65853.47;;;27.03;68.20
6833;BME280;3454;42.654;23.378;2023-06-14T10:56:50;65908.34;;;27.51;66.24
6833;BME280;3454;42.654;23.378;2023-06-14T10:59:17;65867.94;;;27.16;63.06
6833;BME280;3454;42.654;23.378;2023-06-14T11:01:57;65859.59;;;27.09;64.61
6833;BME280;3454;42.654;23.378;2023-06-14T11:04:34;65815.47;;;26.67;66.01
6833;BME280;3454;42.654;23.378;2023-06-14T11:07:11;65766.59;;;26.22;68.27
6833;BME280;3454;42.654;23.378;2023-06-14T11:10:04;65725.47;;;25.85;72.30
6833;BME280;3454;42.654;23.378;2023-06-14T11:12:33;65733.81;;;25.93;72.92
6833;BME280;3454;42.654;23.378;2023-06-14T11:15:01;65698.47;;;25.63;70.36
6833;BME280;3454;42.654;23.378;2023-06-14T11:17:26;65710.69;;;25.74;69.18
6833;BME280;3454;42.654;23.378;2023-06-14T11:22:41;65696.25;;;25.61;70.03
6833;BME280;3454;42.654;23.378;2023-06-14T11:25:11;65705.13;;;25.69;71.65
6833;BME280;3454;42.654;23.378;2023-06-14T11:27:37;65707.72;;;25.69;71.84
6833;BME280;3454;42.654;23.378;2023-06-14T11:30:02;65732.88;;;25.94;71.42
6833;BME280;3454;42.654;23.378;2023-06-14T11:32:28;65770.13;;;26.28;73.54
6833;BME280;3454;42.654;23.378;2023-06-14T11:34:53;65802.13;;;26.54;70.63
6833;BME280;3454;42.654;23.378;2023-06-14T11:37:19;65844.56;;;26.95;67.70
6833;BME280;3454;42.654;23.378;2023-06-14T11:39:45;65825.69;;;26.78;65.28
6833;BME280;3454;42.654;23.378;2023-06-14T11:42:15;65824.00;;;26.77;62.75
6833;BME280;3454;42.654;23.378;2023-06-14T11:44:40;65789.56;;;26.45;61.66
6833;BME280;3454;42.654;23.378;2023-06-14T11:47:06;65831.81;;;26.84;62.02
6833;BME280;3454;42.654;23.378;2023-06-14T11:49:35;65884.06;;;27.31;55.81
6833;BME280;3454;42.654;23.378;2023-06-14T11:52:01;65868.66;;;27.19;57.63
6833;BME280;3454;42.654;23.378;2023-06-14T11:54:27;65840.31;;;26.94;62.35
6833;BME280;3454;42.654;23.378;2023-06-14T11:56:52;65769.00;;;26.27;60.95
6833;BME280;3454;42.654;23.378;2023-06-14T11:59:18;65777.34;;;26.34;63.45
6833;BME280;3454;42.654;23.378;2023-06-14T12:01:43;65856.25;;;27.06;63.74
6833;BME280;3454;42.654;23.378;2023-06-14T12:04:09;65947.44;;;27.88;61.66
6833;BME280;3454;42.654;23.378;2023-06-14T12:06:34;66005.31;;;28.41;60.69
6833;BME280;3454;42.654;23.378;2023-06-14T12:09:05;66015.53;;;28.52;57.37
6833;BME280;3454;42.654;23.378;2023-06-14T12:11:38;66032.25;;;28.67;55.07
6833;BME280;3454;42.654;23.378;2023-06-14T12:14:04;66037.81;;;28.72;55.41
6833;BME280;3454;42.654;23.378;2023-06-14T12:16:32;65990.88;;;28.28;56.39
6833;BME280;3454;42.654;23.378;2023-06-14T12:19:01;65914.66;;;27.59;58.50
6833;BME280;3454;42.654;23.378;2023-06-14T12:21:27;65825.69;;;26.78;56.42
6833;BME280;3454;42.654;23.378;2023-06-14T12:23:54;65794.00;;;26.49;60.33
6833;BME280;3454;42.654;23.378;2023-06-14T12:26:20;65776.78;;;26.34;59.87
6833;BME280;3454;42.654;23.378;2023-06-14T12:28:46;65722.34;;;25.85;66.74
6833;BME280;3454;42.654;23.378;2023-06-14T12:31:14;65716.25;;;25.79;66.68
6833;BME280;3454;42.654;23.378;2023-06-14T12:33:40;65704.38;;;25.66;66.94
6833;BME280;3454;42.654;23.378;2023-06-14T12:36:07;65690.69;;;25.56;69.29
6833;BME280;3454;42.654;23.378;2023-06-14T12:38:33;65675.50;;;25.40;68.08
6833;BME280;3454;42.654;23.378;2023-06-14T12:40:59;65657.38;;;25.26;68.73
6833;BME280;3454;42.654;23.378;2023-06-14T12:43:25;65642.59;;;25.15;69.28
6833;BME280;3454;42.654;23.378;2023-06-14T12:45:50;65620.78;;;24.92;67.08
6833;BME280;3454;42.654;23.378;2023-06-14T12:48:16;65589.69;;;24.64;68.00
6833;BME280;3454;42.654;23.378;2023-06-14T12:50:41;65565.28;;;24.42;71.25
6833;BME280;3454;42.654;23.378;2023-06-14T12:53:07;65563.97;;;24.39;73.36
6833;BME280;3454;42.654;23.378;2023-06-14T12:55:33;65562.31;;;24.37;70.38
6833;BME280;3454;42.654;23.378;2023-06-14T12:57:58;65549.22;;;24.28;67.48
6833;BME280;3454;42.654;23.378;2023-06-14T13:00:24;65539.59;;;24.16;68.26
6833;BME280;3454;42.654;23.378;2023-06-14T13:02:51;65519.81;;;24.01;69.60
6833;BME280;3454;42.654;23.378;2023-06-14T13:05:17;65505.75;;;23.86;71.87
6833;BME280;3454;42.654;23.378;2023-06-14T13:07:43;65446.47;;;23.32;79.62
6833;BME280;3454;42.654;23.378;2023-06-14T13:10:08;65405.66;;;22.97;84.11
6833;BME280;3454;42.654;23.378;2023-06-14T13:12:34;65404.91;;;22.94;87.02
6833;BME280;3454;42.654;23.378;2023-06-14T13:14:59;65380.19;;;22.74;89.32
6833;BME280;3454;42.654;23.378;2023-06-14T13:17:25;65311.34;;;22.09;97.60
6833;BME280;3454;42.654;23.378;2023-06-14T13:19:50;65258.19;;;21.61;100.00
6833;BME280;3454;42.654;23.378;2023-06-14T13:22:15;65230.34;;;21.33;100.00